Time;durP1;ratioP1;P1;durP2;ratioP2;P2;SDS_P1;SDS_P2;PMS_P1;PMS_P2;Temp;Humidity;BMP_temperature;BMP_pressure;BME280_temperature;BME280_humidity;BME280_pressure;Samples;Min_cycle;Max_cycle;Signal;HPM_P1;HPM_P2
2022/03/03 00:01:38;;;;;;;77.15;34.25;;;;;;;;;;5074466;28;20047;-70
2022/03/03 00:04:05;;;;;;;72.68;31.77;;;;;;;;;;5056996;28;20386;-70
2022/03/03 00:06:31;;;;;;;79.65;34.63;;;;;;;;;;5074817;28;20068;-70
2022/03/03 00:08:57;;;;;;;84.78;35.45;;;;;;;;;;5056377;28;20141;-70
2022/03/03 00:11:23;;;;;;;78.78;34.25;;;;;;;;;;5056969;28;20148;-70
2022/03/03 00:13:49;;;;;;;80.60;33.67;;;;;;;;;;5057067;28;20123;-70
2022/03/03 00:16:16;;;;;;;81.15;35.35;;;;;;;;;;5056592;28;20045;-70
2022/03/03 00:18:42;;;;;;;78.40;34.38;;;;;;;;;;5074665;28;20058;-70
2022/03/03 00:21:08;;;;;;;77.72;34.50;;;;;;;;;;5074711;28;20053;-70
2022/03/03 00:23:34;;;;;;;70.35;31.42;;;;;;;;;;5074191;28;20511;-70
2022/03/03 00:26:00;;;;;;;72.43;31.77;;;;;;;;;;5074422;28;20036;-70
2022/03/03 00:28:27;;;;;;;76.63;32.70;;;;;;;;;;5072970;28;20044;-68
2022/03/03 00:30:53;;;;;;;72.85;31.88;;;;;;;;;;5056582;28;20051;-69
2022/03/03 00:33:19;;;;;;;75.22;33.92;;;;;;;;;;5074466;28;20045;-69
2022/03/03 00:35:45;;;;;;;73.32;33.33;;;;;;;;;;5072430;28;20102;-69
2022/03/03 00:38:11;;;;;;;73.28;32.67;;;;;;;;;;5074131;28;20047;-69
2022/03/03 00:40:37;;;;;;;75.10;32.75;;;;;;;;;;5073890;28;20052;-70
2022/03/03 00:43:04;;;;;;;73.50;32.28;;;;;;;;;;5074108;28;20083;-70
2022/03/03 00:45:31;;;;;;;71.75;31.83;;;;;;;;;;5074112;28;20045;-70
2022/03/03 00:47:56;;;;;;;73.05;33.42;;;;;;;;;;5074132;28;20045;-69
2022/03/03 00:50:23;;;;;;;74.78;33.70;;;;;;;;;;5074252;28;20052;-70
2022/03/03 00:52:49;;;;;;;75.00;32.38;;;;;;;;;;5052752;28;20128;-70
2022/03/03 00:55:14;;;;;;;72.78;31.00;;;;;;;;;;5069731;28;20531;-69
2022/03/03 00:57:40;;;;;;;75.78;34.15;;;;;;;;;;5055502;28;20047;-69
2022/03/03 01:00:07;;;;;;;73.65;32.75;;;;;;;;;;5073972;28;20048;-69
2022/03/03 01:02:33;;;;;;;74.10;34.28;;;;;;;;;;5073862;28;20436;-69
2022/03/03 01:04:59;;;;;;;71.93;32.13;;;;;;;;;;5074048;28;20044;-70
2022/03/03 01:07:26;;;;;;;74.68;32.95;;;;;;;;;;5073824;28;20043;-70
2022/03/03 01:09:52;;;;;;;75.47;31.52;;;;;;;;;;5073574;28;20051;-70
2022/03/03 01:12:18;;;;;;;77.75;34.42;;;;;;;;;;5073086;28;20044;-70
2022/03/03 01:14:44;;;;;;;75.57;32.45;;;;;;;;;;5055650;28;20049;-70
2022/03/03 01:17:10;;;;;;;67.80;31.40;;;;;;;;;;5056101;28;20052;-70
2022/03/03 01:19:36;;;;;;;73.25;31.60;;;;;;;;;;5055625;28;20072;-69
2022/03/03 01:22:02;;;;;;;73.72;32.67;;;;;;;;;;5073874;28;20036;-70
2022/03/03 01:24:28;;;;;;;78.40;33.38;;;;;;;;;;5055825;28;20390;-70
2022/03/03 01:26:54;;;;;;;68.68;30.85;;;;;;;;;;5073607;28;20037;-70
2022/03/03 01:29:20;;;;;;;66.78;30.33;;;;;;;;;;5072234;28;20526;-70
2022/03/03 01:31:46;;;;;;;69.07;30.67;;;;;;;;;;5055633;28;20486;-70
2022/03/03 01:34:12;;;;;;;81.40;32.20;;;;;;;;;;5051812;28;20065;-70
2022/03/03 01:36:38;;;;;;;78.05;32.30;;;;;;;;;;5053466;28;20063;-70
2022/03/03 01:39:04;;;;;;;79.32;32.63;;;;;;;;;;5053680;28;20389;-70
2022/03/03 01:41:30;;;;;;;70.43;30.00;;;;;;;;;;5055697;28;20055;-70
2022/03/03 01:43:56;;;;;;;70.47;30.88;;;;;;;;;;5035782;28;20047;-70
2022/03/03 01:46:22;;;;;;;68.97;31.58;;;;;;;;;;5052252;28;20123;-70
2022/03/03 01:48:48;;;;;;;74.20;33.83;;;;;;;;;;5035491;28;20052;-70
2022/03/03 01:51:15;;;;;;;78.63;32.30;;;;;;;;;;5053552;28;20041;-71
2022/03/03 01:53:41;;;;;;;76.40;32.55;;;;;;;;;;5051633;28;20203;-70
2022/03/03 01:56:08;;;;;;;74.85;32.15;;;;;;;;;;5052822;28;20051;-70
2022/03/03 01:58:34;;;;;;;67.25;30.05;;;;;;;;;;5052995;28;20045;-70
2022/03/03 02:01:00;;;;;;;81.43;33.35;;;;;;;;;;5051975;28;20055;-69
2022/03/03 02:03:26;;;;;;;71.28;32.55;;;;;;;;;;5052314;28;20053;-69
2022/03/03 02:05:52;;;;;;;78.07;32.67;;;;;;;;;;5053335;28;20094;-69
2022/03/03 02:08:19;;;;;;;76.35;32.55;;;;;;;;;;5053357;28;20404;-70
2022/03/03 02:10:45;;;;;;;72.72;31.35;;;;;;;;;;5053160;28;20127;-69
2022/03/03 02:13:11;;;;;;;72.50;31.42;;;;;;;;;;5052946;28;20076;-70
2022/03/03 02:15:37;;;;;;;65.82;29.27;;;;;;;;;;5053379;28;20049;-70
2022/03/03 02:18:03;;;;;;;69.28;30.88;;;;;;;;;;5053071;28;20044;-70
2022/03/03 02:20:30;;;;;;;71.63;31.27;;;;;;;;;;5052876;28;20052;-70
2022/03/03 02:22:57;;;;;;;59.03;27.73;;;;;;;;;;5053114;28;20076;-70
2022/03/03 02:25:23;;;;;;;65.93;29.52;;;;;;;;;;5056454;28;20049;-69
2022/03/03 02:27:50;;;;;;;66.63;30.65;;;;;;;;;;5056579;28;20047;-69
2022/03/03 02:30:17;;;;;;;71.75;32.35;;;;;;;;;;5056783;28;20041;-70
2022/03/03 02:32:44;;;;;;;61.90;30.02;;;;;;;;;;5056626;28;20049;-70
2022/03/03 02:35:10;;;;;;;71.40;31.38;;;;;;;;;;5054960;28;20464;-70
2022/03/03 02:37:40;;;;;;;70.00;30.30;;;;;;;;;;5055226;28;20408;-69
2022/03/03 02:40:08;;;;;;;61.88;28.02;;;;;;;;;;5056399;28;20484;-70
2022/03/03 02:42:34;;;;;;;63.37;28.63;;;;;;;;;;5055294;28;20080;-70
2022/03/03 02:45:04;;;;;;;72.43;31.60;;;;;;;;;;5054902;28;20045;-71
2022/03/03 02:47:30;;;;;;;62.85;29.48;;;;;;;;;;5038469;28;20496;-70
2022/03/03 02:49:56;;;;;;;66.57;29.98;;;;;;;;;;5056291;28;20521;-71
2022/03/03 02:52:22;;;;;;;69.03;31.55;;;;;;;;;;5056634;28;20132;-70
2022/03/03 02:54:48;;;;;;;64.65;30.05;;;;;;;;;;5055053;28;20128;-70
2022/03/03 02:59:59;;;;;;;81.00;34.20;;;;;;;;;;5055944;28;20045;-70
2022/03/03 03:02:25;;;;;;;71.57;31.73;;;;;;;;;;5056490;28;20045;-70
2022/03/03 03:04:51;;;;;;;70.32;30.02;;;;;;;;;;5054628;28;20388;-70
2022/03/03 03:07:17;;;;;;;70.53;30.35;;;;;;;;;;5054643;28;20106;-70
2022/03/03 03:09:43;;;;;;;65.20;30.48;;;;;;;;;;5055775;28;20045;-70
2022/03/03 03:12:09;;;;;;;59.78;27.73;;;;;;;;;;5054367;28;20051;-69
2022/03/03 03:14:35;;;;;;;67.03;28.95;;;;;;;;;;5054457;28;20111;-70
2022/03/03 03:17:01;;;;;;;63.25;29.75;;;;;;;;;;5054491;28;20041;-70
2022/03/03 03:19:27;;;;;;;75.25;31.70;;;;;;;;;;5054566;28;20045;-70
2022/03/03 03:21:53;;;;;;;74.50;31.33;;;;;;;;;;5055391;28;20087;-70
2022/03/03 03:24:19;;;;;;;77.65;31.13;;;;;;;;;;5055629;28;20045;-70
2022/03/03 03:26:45;;;;;;;67.43;31.58;;;;;;;;;;5055347;28;20048;-70
2022/03/03 03:29:11;;;;;;;70.22;31.45;;;;;;;;;;5037537;28;20536;-70
2022/03/03 03:31:37;;;;;;;67.70;29.42;;;;;;;;;;5055457;28;20045;-70
2022/03/03 03:34:03;;;;;;;68.32;31.15;;;;;;;;;;5060811;28;20056;-70
2022/03/03 03:36:29;;;;;;;69.03;33.17;;;;;;;;;;5074659;28;20150;-69
2022/03/03 03:38:55;;;;;;;71.43;31.33;;;;;;;;;;5057524;28;20495;-70
2022/03/03 03:41:21;;;;;;;70.45;31.75;;;;;;;;;;5057353;28;20059;-70
2022/03/03 03:43:47;;;;;;;66.47;31.73;;;;;;;;;;5075307;28;20048;-70
2022/03/03 03:46:13;;;;;;;71.95;31.38;;;;;;;;;;5075091;28;20055;-69
2022/03/03 03:48:39;;;;;;;73.32;32.65;;;;;;;;;;5075130;28;20131;-69
2022/03/03 03:51:04;;;;;;;75.75;34.28;;;;;;;;;;5056572;28;20488;-70
2022/03/03 03:53:30;;;;;;;73.63;33.13;;;;;;;;;;5057097;28;20106;-70
2022/03/03 03:55:56;;;;;;;75.88;32.75;;;;;;;;;;5074954;28;20040;-70
2022/03/03 03:58:22;;;;;;;76.72;33.67;;;;;;;;;;5057017;28;20045;-70
2022/03/03 04:00:48;;;;;;;70.28;32.15;;;;;;;;;;5057163;28;20056;-70
2022/03/03 04:03:14;;;;;;;78.60;35.42;;;;;;;;;;5074841;28;20093;-70
2022/03/03 04:05:40;;;;;;;72.75;32.35;;;;;;;;;;5056700;28;20488;-71
2022/03/03 04:08:06;;;;;;;69.82;32.35;;;;;;;;;;5074886;28;20439;-71
2022/03/03 04:10:32;;;;;;;67.80;31.17;;;;;;;;;;5074612;28;20048;-71
2022/03/03 04:12:58;;;;;;;65.95;30.30;;;;;;;;;;5056884;28;20044;-70
2022/03/03 04:15:24;;;;;;;67.40;30.83;;;;;;;;;;5056459;28;20403;-70
2022/03/03 04:17:50;;;;;;;63.90;29.52;;;;;;;;;;5074305;28;20120;-70
2022/03/03 04:20:18;;;;;;;62.88;29.92;;;;;;;;;;5074504;28;20053;-70
2022/03/03 04:22:44;;;;;;;62.05;28.85;;;;;;;;;;5074447;28;20090;-70
2022/03/03 04:25:12;;;;;;;59.30;28.88;;;;;;;;;;5056042;28;20071;-70
2022/03/03 04:27:39;;;;;;;;;;;;;;;;;;5057005;28;20178;-70
2022/03/03 04:30:06;;;;;;;68.63;29.75;;;;;;;;;;5074243;28;19964;-70
2022/03/03 04:32:32;;;;;;;64.30;30.58;;;;;;;;;;5074185;28;20075;-70
2022/03/03 04:34:58;;;;;;;66.78;31.70;;;;;;;;;;5073831;28;20091;-70
2022/03/03 04:37:24;;;;;;;59.25;28.38;;;;;;;;;;5074458;28;20040;-68
2022/03/03 04:39:50;;;;;;;62.35;27.70;;;;;;;;;;5073904;28;20446;-69
2022/03/03 04:42:16;;;;;;;62.55;29.52;;;;;;;;;;5074062;28;20047;-69
2022/03/03 04:44:42;;;;;;;64.18;29.02;;;;;;;;;;5056195;28;20051;-69
2022/03/03 04:47:08;;;;;;;62.53;28.02;;;;;;;;;;5074433;28;20054;-69
2022/03/03 04:49:34;;;;;;;59.92;28.35;;;;;;;;;;5056290;28;20091;-70
2022/03/03 04:52:00;;;;;;;57.83;26.13;;;;;;;;;;5074229;28;20036;-70
2022/03/03 04:54:26;;;;;;;58.58;27.23;;;;;;;;;;5075412;28;20105;-70
2022/03/03 04:56:54;;;;;;;61.47;27.38;;;;;;;;;;5074177;28;20040;-70
2022/03/03 04:59:23;;;;;;;54.78;26.20;;;;;;;;;;5056473;28;20063;-70
2022/03/03 05:01:49;;;;;;;54.72;26.13;;;;;;;;;;5073954;28;20064;-70
2022/03/03 05:04:15;;;;;;;55.20;27.13;;;;;;;;;;5073791;28;20399;-69
2022/03/03 05:06:41;;;;;;;57.10;26.05;;;;;;;;;;5072584;28;20124;-70
2022/03/03 05:09:07;;;;;;;58.92;25.55;;;;;;;;;;5073772;28;20102;-70
2022/03/03 05:11:33;;;;;;;52.58;25.50;;;;;;;;;;5056070;28;20103;-70
2022/03/03 05:13:59;;;;;;;60.05;27.02;;;;;;;;;;5073836;28;20530;-69
2022/03/03 05:16:25;;;;;;;56.92;27.02;;;;;;;;;;5055867;28;20045;-69
2022/03/03 05:18:50;;;;;;;54.65;26.13;;;;;;;;;;5073318;28;20395;-69
2022/03/03 05:21:16;;;;;;;51.38;24.48;;;;;;;;;;5055368;28;20052;-71
2022/03/03 05:23:42;;;;;;;46.30;23.83;;;;;;;;;;5055704;28;20430;-70
2022/03/03 05:26:08;;;;;;;48.50;24.30;;;;;;;;;;5055897;28;20044;-70
2022/03/03 05:28:34;;;;;;;51.60;25.23;;;;;;;;;;5073994;28;20353;-70
2022/03/03 05:31:00;;;;;;;51.17;25.08;;;;;;;;;;5055505;28;20082;-69
2022/03/03 05:33:27;;;;;;;56.58;25.25;;;;;;;;;;5073643;28;20075;-69
2022/03/03 05:35:58;;;;;;;49.20;24.48;;;;;;;;;;5073510;28;20049;-69
2022/03/03 05:38:26;;;;;;;62.83;26.50;;;;;;;;;;5055616;28;20057;-70
2022/03/03 05:40:53;;;;;;;50.83;24.85;;;;;;;;;;5055347;28;20102;-69
2022/03/03 05:43:19;;;;;;;50.67;24.85;;;;;;;;;;5073556;28;20060;-70
2022/03/03 05:45:47;;;;;;;55.42;24.15;;;;;;;;;;5055071;28;20066;-70
2022/03/03 05:48:16;;;;;;;84.43;27.80;;;;;;;;;;5072858;28;20110;-69
2022/03/03 05:50:42;;;;;;;63.40;25.67;;;;;;;;;;5073341;28;20044;-69
2022/03/03 05:53:08;;;;;;;57.42;25.48;;;;;;;;;;5073473;28;20132;-70
2022/03/03 05:55:38;;;;;;;71.30;27.17;;;;;;;;;;5073745;28;20116;-70
2022/03/03 05:58:06;;;;;;;52.65;24.92;;;;;;;;;;5074047;28;20049;-69
2022/03/03 06:00:33;;;;;;;65.40;26.15;;;;;;;;;;5077556;28;20075;-69
2022/03/03 06:03:02;;;;;;;85.00;31.40;;;;;;;;;;5077393;28;20040;-69
2022/03/03 06:05:28;;;;;;;88.68;31.27;;;;;;;;;;5077285;28;20049;-70
2022/03/03 06:07:56;;;;;;;93.10;31.17;;;;;;;;;;5059288;28;20380;-70
2022/03/03 06:10:23;;;;;;;56.58;25.85;;;;;;;;;;5058778;28;20045;-70
2022/03/03 06:12:52;;;;;;;69.93;29.20;;;;;;;;;;5058737;28;20047;-70
2022/03/03 06:15:19;;;;;;;102.80;33.40;;;;;;;;;;5077190;28;20052;-70
2022/03/03 06:17:45;;;;;;;106.30;35.65;;;;;;;;;;5076894;28;20138;-70
2022/03/03 06:20:12;;;;;;;87.80;30.65;;;;;;;;;;5076934;28;20044;-70
2022/03/03 06:22:38;;;;;;;75.13;30.05;;;;;;;;;;5076805;28;20044;-70
2022/03/03 06:25:05;;;;;;;51.95;25.35;;;;;;;;;;5076625;28;20124;-70
2022/03/03 06:27:32;;;;;;;142.85;40.25;;;;;;;;;;5076747;28;20048;-69
2022/03/03 06:29:58;;;;;;;95.65;33.75;;;;;;;;;;5076701;28;20036;-69
2022/03/03 06:32:24;;;;;;;149.27;42.83;;;;;;;;;;5076628;28;20093;-70
2022/03/03 06:34:50;;;;;;;128.65;38.35;;;;;;;;;;5076200;28;20048;-70
2022/03/03 06:37:16;;;;;;;85.90;32.08;;;;;;;;;;5058445;28;20472;-70
2022/03/03 06:39:42;;;;;;;82.43;30.60;;;;;;;;;;5076436;28;20087;-69
2022/03/03 06:42:08;;;;;;;90.22;32.97;;;;;;;;;;5076366;28;20052;-70
2022/03/03 06:44:35;;;;;;;68.25;30.05;;;;;;;;;;5076747;28;20036;-72
2022/03/03 06:47:01;;;;;;;88.15;30.88;;;;;;;;;;5058184;28;20045;-70
2022/03/03 06:49:28;;;;;;;115.85;37.08;;;;;;;;;;5076222;28;20047;-70
2022/03/03 06:51:55;;;;;;;87.47;32.42;;;;;;;;;;5058239;28;20053;-70
2022/03/03 06:54:22;;;;;;;89.05;31.33;;;;;;;;;;5076164;28;20040;-70
2022/03/03 06:56:52;;;;;;;74.15;31.92;;;;;;;;;;5076042;28;20048;-70
2022/03/03 06:59:22;;;;;;;106.32;34.38;;;;;;;;;;5076106;28;20128;-70
2022/03/03 07:01:49;;;;;;;75.50;29.38;;;;;;;;;;5076010;28;20440;-70
2022/03/03 07:04:16;;;;;;;77.53;30.10;;;;;;;;;;5075893;28;20049;-70
2022/03/03 07:06:43;;;;;;;67.03;30.02;;;;;;;;;;5075648;28;20076;-70
2022/03/03 07:09:09;;;;;;;97.97;33.95;;;;;;;;;;5075436;28;20045;-70
2022/03/03 07:11:37;;;;;;;144.90;41.65;;;;;;;;;;5075471;28;20083;-70
2022/03/03 07:14:03;;;;;;;81.97;31.05;;;;;;;;;;5074293;28;20056;-70
2022/03/03 07:16:35;;;;;;;89.85;31.63;;;;;;;;;;5076039;28;20144;-70
2022/03/03 07:19:02;;;;;;;72.15;28.17;;;;;;;;;;5058154;28;20110;-70
2022/03/03 07:21:41;;;;;;;76.53;30.85;;;;;;;;;;5057997;28;20146;-70
2022/03/03 07:24:16;;;;;;;70.88;30.02;;;;;;;;;;5076340;28;20048;-71
2022/03/03 07:26:43;;;;;;;80.50;30.42;;;;;;;;;;5075036;28;20041;-70
2022/03/03 07:29:10;;;;;;;128.68;36.47;;;;;;;;;;5075869;28;20041;-70
2022/03/03 07:31:41;;;;;;;90.88;30.27;;;;;;;;;;5075644;28;20124;-70
2022/03/03 07:34:07;;;;;;;80.78;30.20;;;;;;;;;;5076054;28;20056;-71
2022/03/03 07:36:34;;;;;;;71.10;28.95;;;;;;;;;;5057967;28;20061;-71
2022/03/03 07:39:05;;;;;;;78.95;30.27;;;;;;;;;;5058036;28;20044;-71
2022/03/03 07:41:31;;;;;;;58.72;27.30;;;;;;;;;;5076037;28;20049;-70
2022/03/03 07:43:58;;;;;;;67.32;27.00;;;;;;;;;;5057917;28;20053;-71
2022/03/03 07:46:24;;;;;;;60.45;27.33;;;;;;;;;;5058360;28;20480;-70
2022/03/03 07:48:53;;;;;;;50.97;24.40;;;;;;;;;;5075583;28;20143;-71
2022/03/03 07:51:19;;;;;;;57.90;26.58;;;;;;;;;;5075542;28;20048;-71
2022/03/03 07:53:45;;;;;;;74.20;28.13;;;;;;;;;;5074455;28;20068;-72
2022/03/03 07:56:16;;;;;;;73.50;29.60;;;;;;;;;;5057428;28;20468;-70
2022/03/03 07:58:43;;;;;;;48.72;25.38;;;;;;;;;;5075308;28;20161;-71
2022/03/03 08:01:10;;;;;;;77.38;27.23;;;;;;;;;;5076520;28;20098;-71
2022/03/03 08:03:36;;;;;;;59.13;25.77;;;;;;;;;;5060199;28;20127;-71
2022/03/03 08:06:02;;;;;;;52.85;24.60;;;;;;;;;;5078661;28;20052;-71
2022/03/03 08:08:29;;;;;;;46.83;23.95;;;;;;;;;;5076414;28;20136;-71
2022/03/03 08:11:02;;;;;;;44.75;23.33;;;;;;;;;;5057890;28;20106;-71
2022/03/03 08:13:29;;;;;;;45.92;23.13;;;;;;;;;;5075633;28;20082;-71
2022/03/03 08:15:55;;;;;;;58.78;25.85;;;;;;;;;;5075709;28;20036;-71
2022/03/03 08:18:21;;;;;;;53.00;23.58;;;;;;;;;;5075550;28;20047;-71
2022/03/03 08:20:47;;;;;;;44.42;22.92;;;;;;;;;;5057372;28;20044;-71
2022/03/03 08:23:13;;;;;;;62.45;26.88;;;;;;;;;;5075631;28;20041;-71
2022/03/03 08:25:39;;;;;;;64.10;24.95;;;;;;;;;;5075451;28;20451;-71
2022/03/03 08:28:06;;;;;;;53.60;25.02;;;;;;;;;;5056781;28;20076;-71
2022/03/03 08:30:34;;;;;;;52.85;24.33;;;;;;;;;;5076072;28;20044;-72
2022/03/03 08:33:03;;;;;;;51.05;23.50;;;;;;;;;;5075429;28;20458;-72
2022/03/03 08:35:36;;;;;;;53.92;24.60;;;;;;;;;;5057621;28;20118;-71
2022/03/03 08:38:02;;;;;;;53.70;25.63;;;;;;;;;;5075633;28;20490;-71
2022/03/03 08:40:29;;;;;;;41.70;21.92;;;;;;;;;;5057086;28;20044;-71
2022/03/03 08:42:59;;;;;;;43.67;22.58;;;;;;;;;;5075264;28;20510;-71
2022/03/03 08:45:29;;;;;;;56.60;25.58;;;;;;;;;;5075772;28;20475;-71
2022/03/03 08:47:59;;;;;;;39.95;22.02;;;;;;;;;;5075961;28;20052;-71
2022/03/03 08:50:27;;;;;;;48.92;23.48;;;;;;;;;;5057106;28;20051;-70
2022/03/03 08:52:53;;;;;;;53.78;24.55;;;;;;;;;;5075013;28;20520;-71
2022/03/03 08:55:19;;;;;;;45.00;22.65;;;;;;;;;;5051923;28;20087;-71
2022/03/03 08:57:45;;;;;;;48.55;23.98;;;;;;;;;;5033517;28;20049;-71
2022/03/03 09:00:12;;;;;;;53.30;24.05;;;;;;;;;;5051822;28;20037;-71
2022/03/03 09:02:40;;;;;;;54.75;22.70;;;;;;;;;;5037118;28;20045;-71
2022/03/03 09:05:06;;;;;;;47.75;22.10;;;;;;;;;;5055212;28;20056;-71
2022/03/03 09:07:32;;;;;;;42.60;21.95;;;;;;;;;;5055845;28;20510;-71
2022/03/03 09:09:59;;;;;;;39.42;21.65;;;;;;;;;;5036586;28;20124;-71
2022/03/03 09:12:25;;;;;;;35.97;20.33;;;;;;;;;;5054571;28;20125;-71
2022/03/03 09:14:50;;;;;;;34.95;20.83;;;;;;;;;;5036728;28;20081;-71
2022/03/03 09:17:17;;;;;;;41.72;21.65;;;;;;;;;;5036806;28;20099;-73
2022/03/03 09:19:43;;;;;;;37.28;20.10;;;;;;;;;;5020840;28;20049;-72
2022/03/03 09:22:09;;;;;;;41.53;21.30;;;;;;;;;;5036113;28;20113;-72
2022/03/03 09:24:35;;;;;;;34.33;20.25;;;;;;;;;;5054683;28;20044;-72
2022/03/03 09:27:04;;;;;;;41.33;20.63;;;;;;;;;;5054611;28;20033;-73
2022/03/03 09:29:33;;;;;;;35.25;20.00;;;;;;;;;;5054459;28;20049;-72
2022/03/03 09:31:59;;;;;;;45.72;21.48;;;;;;;;;;5054835;28;20045;-72
2022/03/03 09:34:25;;;;;;;38.58;20.20;;;;;;;;;;5058328;28;20554;-72
2022/03/03 09:36:51;;;;;;;44.42;21.02;;;;;;;;;;5041066;28;20057;-72
2022/03/03 09:39:17;;;;;;;29.70;18.30;;;;;;;;;;5041190;28;20111;-72
2022/03/03 09:41:43;;;;;;;34.50;20.27;;;;;;;;;;5041398;28;20393;-72
2022/03/03 09:44:10;;;;;;;33.17;19.33;;;;;;;;;;5040687;28;20048;-71
2022/03/03 09:46:36;;;;;;;32.92;19.55;;;;;;;;;;5059699;28;20095;-72
2022/03/03 09:49:03;;;;;;;35.10;18.95;;;;;;;;;;5059358;28;20060;-73
2022/03/03 09:51:29;;;;;;;33.40;18.35;;;;;;;;;;5040899;28;20073;-73
2022/03/03 09:53:55;;;;;;;44.55;20.42;;;;;;;;;;5058399;28;20521;-72
2022/03/03 09:56:22;;;;;;;32.00;17.75;;;;;;;;;;5040073;28;20506;-73
2022/03/03 09:58:48;;;;;;;28.83;17.30;;;;;;;;;;5058463;28;20041;-73
2022/03/03 10:01:17;;;;;;;41.28;19.88;;;;;;;;;;5040187;28;20045;-74
2022/03/03 10:03:47;;;;;;;37.35;18.98;;;;;;;;;;5058143;28;20049;-74
2022/03/03 10:06:13;;;;;;;35.78;18.08;;;;;;;;;;5040345;28;20045;-73
2022/03/03 10:08:39;;;;;;;40.33;19.05;;;;;;;;;;5057668;28;20040;-73
2022/03/03 10:11:07;;;;;;;37.08;18.40;;;;;;;;;;5057477;28;20036;-74
2022/03/03 10:13:52;;;;;;;28.92;16.05;;;;;;;;;;5056940;28;20051;-72
2022/03/03 10:16:26;;;;;;;29.80;16.42;;;;;;;;;;5057340;28;20380;-73
2022/03/03 10:19:03;;;;;;;28.08;17.05;;;;;;;;;;5057244;28;20049;-73
2022/03/03 10:21:29;;;;;;;31.05;17.38;;;;;;;;;;5057316;28;20060;-73
2022/03/03 10:23:55;;;;;;;29.55;16.88;;;;;;;;;;5057170;28;20163;-73
2022/03/03 10:26:21;;;;;;;32.00;16.38;;;;;;;;;;5039071;28;20122;-73
2022/03/03 10:28:49;;;;;;;29.45;16.83;;;;;;;;;;5057337;28;20041;-72
2022/03/03 10:31:20;;;;;;;31.20;17.23;;;;;;;;;;5039090;28;20045;-75
2022/03/03 10:33:47;;;;;;;27.05;16.65;;;;;;;;;;5038392;28;20095;-75
2022/03/03 10:36:18;;;;;;;26.77;16.65;;;;;;;;;;5056945;28;20047;-75
2022/03/03 10:38:46;;;;;;;24.95;16.83;;;;;;;;;;5058201;28;20045;-73
2022/03/03 10:41:26;;;;;;;35.10;18.27;;;;;;;;;;5057621;28;20051;-73
2022/03/03 10:43:52;;;;;;;38.60;19.38;;;;;;;;;;5038578;28;20047;-73
2022/03/03 10:46:18;;;;;;;37.55;18.00;;;;;;;;;;5056529;28;20040;-72
2022/03/03 10:48:44;;;;;;;28.92;16.58;;;;;;;;;;5056230;28;20041;-73
2022/03/03 10:51:14;;;;;;;30.63;16.75;;;;;;;;;;5056237;28;20072;-74
2022/03/03 10:53:42;;;;;;;31.17;17.10;;;;;;;;;;5055791;28;20051;-73
2022/03/03 10:56:12;;;;;;;29.73;16.73;;;;;;;;;;5036902;28;20465;-75
2022/03/03 10:58:43;;;;;;;29.77;16.55;;;;;;;;;;5037001;28;20046;-73
2022/03/03 11:01:10;;;;;;;31.48;15.70;;;;;;;;;;5036550;28;20049;-73
2022/03/03 11:03:37;;;;;;;29.52;17.15;;;;;;;;;;5036582;28;20042;-73
2022/03/03 11:06:03;;;;;;;24.17;15.80;;;;;;;;;;5036441;28;20511;-73
2022/03/03 11:08:30;;;;;;;48.30;19.83;;;;;;;;;;5018253;28;20044;-74
2022/03/03 11:10:56;;;;;;;27.30;16.10;;;;;;;;;;5036061;28;20390;-73
2022/03/03 11:13:22;;;;;;;36.63;17.85;;;;;;;;;;5018561;28;20603;-74
2022/03/03 11:15:49;;;;;;;26.33;15.93;;;;;;;;;;5018450;28;20048;-74
2022/03/03 11:18:18;;;;;;;28.70;16.08;;;;;;;;;;5036395;28;20054;-74
2022/03/03 11:20:45;;;;;;;36.53;17.20;;;;;;;;;;5036278;28;20060;-74
2022/03/03 11:23:11;;;;;;;20.92;14.73;;;;;;;;;;5036844;28;20056;-73
2022/03/03 11:25:38;;;;;;;34.97;18.13;;;;;;;;;;5018102;28;20386;-73
2022/03/03 11:28:15;;;;;;;27.15;15.45;;;;;;;;;;5035390;28;20041;-73
2022/03/03 11:30:43;;;;;;;26.63;15.85;;;;;;;;;;5035762;28;20120;-73
2022/03/03 11:33:18;;;;;;;21.63;14.02;;;;;;;;;;5035521;28;20046;-73
2022/03/03 11:35:52;;;;;;;31.80;16.38;;;;;;;;;;5035108;28;20085;-73
2022/03/03 11:38:18;;;;;;;36.20;18.45;;;;;;;;;;5017985;28;20053;-74
2022/03/03 11:40:51;;;;;;;31.60;16.55;;;;;;;;;;5035960;28;20046;-74
2022/03/03 11:43:17;;;;;;;29.55;17.33;;;;;;;;;;5035657;28;20169;-74
2022/03/03 11:45:49;;;;;;;28.27;16.98;;;;;;;;;;5035575;28;20041;-76
2022/03/03 11:48:16;;;;;;;22.20;16.02;;;;;;;;;;5017765;28;20152;-76
2022/03/03 11:50:43;;;;;;;25.30;16.83;;;;;;;;;;5035217;28;20048;-76
2022/03/03 11:53:09;;;;;;;31.60;18.25;;;;;;;;;;5017239;28;20050;-76
2022/03/03 11:55:43;;;;;;;20.38;15.65;;;;;;;;;;5034293;28;20075;-74
2022/03/03 11:58:16;;;;;;;30.52;17.88;;;;;;;;;;5035207;28;20049;-75
2022/03/03 12:00:47;;;;;;;21.63;15.70;;;;;;;;;;5034922;28;20041;-73
2022/03/03 12:03:14;;;;;;;23.95;16.13;;;;;;;;;;5035368;28;20117;-73
2022/03/03 12:05:47;;;;;;;32.55;15.90;;;;;;;;;;5035112;28;20045;-74
2022/03/03 12:08:13;;;;;;;26.25;16.73;;;;;;;;;;5034775;28;20061;-73
2022/03/03 12:10:56;;;;;;;22.13;15.00;;;;;;;;;;5035740;28;20501;-74
2022/03/03 12:13:35;;;;;;;20.48;14.90;;;;;;;;;;5034768;28;20480;-74
2022/03/03 12:16:20;;;;;;;34.33;17.65;;;;;;;;;;5035004;28;20125;-75
2022/03/03 12:18:50;;;;;;;22.02;15.23;;;;;;;;;;5016974;28;20088;-75
2022/03/03 12:21:22;;;;;;;21.75;15.70;;;;;;;;;;5017154;28;20045;-73
2022/03/03 12:23:48;;;;;;;19.55;15.10;;;;;;;;;;5017058;28;20134;-74
2022/03/03 12:26:14;;;;;;;33.75;19.23;;;;;;;;;;5035058;28;20088;-73
2022/03/03 12:28:41;;;;;;;37.03;19.52;;;;;;;;;;5016779;28;20045;-73
2022/03/03 12:31:19;;;;;;;40.38;19.45;;;;;;;;;;5034479;28;20053;-73
2022/03/03 12:34:08;;;;;;;34.88;17.67;;;;;;;;;;5000134;28;20183;-73
2022/03/03 12:36:36;;;;;;;24.13;16.00;;;;;;;;;;5034504;28;20076;-73
2022/03/03 12:39:03;;;;;;;21.20;13.98;;;;;;;;;;5034725;28;20060;-75
2022/03/03 12:41:30;;;;;;;30.95;17.05;;;;;;;;;;5034124;28;20045;-75
2022/03/03 12:44:22;;;;;;;19.33;13.57;;;;;;;;;;5034404;28;20091;-75
2022/03/03 12:46:48;;;;;;;26.25;15.43;;;;;;;;;;5030328;28;20103;-75
2022/03/03 12:49:14;;;;;;;20.58;14.95;;;;;;;;;;5016372;28;20111;-73
2022/03/03 12:51:44;;;;;;;22.58;15.60;;;;;;;;;;5016292;28;20041;-74
2022/03/03 12:54:10;;;;;;;28.33;16.90;;;;;;;;;;5034455;28;20130;-73
2022/03/03 12:56:36;;;;;;;37.88;17.67;;;;;;;;;;5016263;28;20772;-74
2022/03/03 12:59:07;;;;;;;24.83;15.23;;;;;;;;;;5034407;28;20044;-74
2022/03/03 13:01:33;;;;;;;21.60;15.65;;;;;;;;;;5033847;28;20050;-75
2022/03/03 13:04:03;;;;;;;43.35;17.88;;;;;;;;;;5034193;28;20095;-75
2022/03/03 13:06:29;;;;;;;23.67;15.63;;;;;;;;;;5033904;28;20049;-74
2022/03/03 13:09:13;;;;;;;21.25;13.82;;;;;;;;;;5033908;28;20045;-75
2022/03/03 13:11:39;;;;;;;17.92;10.18;;;;;;;;;;5033697;28;20042;-75
2022/03/03 13:14:06;;;;;;;18.23;10.63;;;;;;;;;;5034054;28;20044;-75
2022/03/03 13:16:36;;;;;;;12.98;8.93;;;;;;;;;;5016326;28;20056;-74
2022/03/03 13:19:04;;;;;;;13.77;9.32;;;;;;;;;;5000288;28;20140;-74
2022/03/03 13:21:30;;;;;;;11.38;8.73;;;;;;;;;;5033686;28;20045;-73
2022/03/03 13:23:57;;;;;;;11.93;8.68;;;;;;;;;;5016038;28;20050;-75
2022/03/03 13:26:28;;;;;;;10.40;8.63;;;;;;;;;;5016505;28;20080;-74
2022/03/03 13:29:01;;;;;;;12.90;8.85;;;;;;;;;;5016120;28;20404;-75
2022/03/03 13:31:31;;;;;;;12.90;9.57;;;;;;;;;;5033422;28;20057;-74
2022/03/03 13:34:02;;;;;;;16.60;9.80;;;;;;;;;;5033753;28;20060;-75
2022/03/03 13:36:30;;;;;;;13.38;9.77;;;;;;;;;;5032935;28;20053;-75
2022/03/03 13:38:57;;;;;;;16.02;10.70;;;;;;;;;;5034303;28;20057;-73
2022/03/03 13:41:25;;;;;;;15.95;10.60;;;;;;;;;;5033676;28;20137;-74
2022/03/03 13:44:08;;;;;;;13.32;10.70;;;;;;;;;;5034454;28;20052;-74
2022/03/03 13:46:34;;;;;;;11.88;9.95;;;;;;;;;;5035503;28;20042;-74
2022/03/03 13:49:00;;;;;;;15.48;10.00;;;;;;;;;;5034545;28;20097;-75
2022/03/03 13:51:26;;;;;;;12.20;9.77;;;;;;;;;;5034724;28;20494;-74
2022/03/03 13:54:03;;;;;;;21.45;12.80;;;;;;;;;;5034726;28;20047;-74
2022/03/03 13:56:30;;;;;;;15.10;11.90;;;;;;;;;;5034751;28;20099;-75
2022/03/03 13:59:09;;;;;;;18.27;11.50;;;;;;;;;;5033555;28;20046;-75
2022/03/03 14:01:39;;;;;;;15.68;11.25;;;;;;;;;;5016266;28;20077;-73
2022/03/03 14:04:16;;;;;;;16.75;10.00;;;;;;;;;;5034206;28;20038;-73
2022/03/03 14:06:43;;;;;;;21.85;11.15;;;;;;;;;;5034853;28;20042;-74
2022/03/03 14:09:10;;;;;;;20.48;11.13;;;;;;;;;;5033764;28;20485;-73
2022/03/03 14:11:36;;;;;;;11.93;9.00;;;;;;;;;;5015951;28;20121;-73
2022/03/03 14:14:02;;;;;;;30.67;14.13;;;;;;;;;;5033515;28;20060;-73
2022/03/03 14:16:32;;;;;;;13.77;9.52;;;;;;;;;;5018299;28;20057;-72
2022/03/03 14:18:59;;;;;;;16.23;10.30;;;;;;;;;;5036358;28;20049;-73
2022/03/03 14:21:25;;;;;;;14.55;9.93;;;;;;;;;;5039067;28;20056;-73
2022/03/03 14:23:52;;;;;;;27.42;14.20;;;;;;;;;;5038381;28;20388;-74